createdAt,value
2019-06-26T00:00:17.229Z,54.30
2019-06-26T00:02:47.629Z,54.00
2019-06-26T00:05:20.350Z,54.60
2019-06-26T00:07:52.734Z,54.80
2019-06-26T00:10:22.382Z,54.70
2019-06-26T00:12:54.140Z,56.10
2019-06-26T00:15:23.187Z,55.50
2019-06-26T00:17:54.546Z,54.70
2019-06-26T00:20:26.011Z,53.10
2019-06-26T00:22:55.687Z,52.50
2019-06-26T00:25:28.680Z,54.70
2019-06-26T00:27:58.341Z,55.60
2019-06-26T00:30:28.481Z,55.60
2019-06-26T00:32:59.205Z,55.40
2019-06-26T00:35:28.828Z,55.50
2019-06-26T00:38:00.705Z,55.20
2019-06-26T00:40:33.512Z,55.40
2019-06-26T00:43:02.541Z,57.20
2019-06-26T00:45:32.244Z,58.30
2019-06-26T00:48:01.438Z,58.70
2019-06-26T00:50:31.803Z,59.70
2019-06-26T00:53:02.759Z,58.60
2019-06-26T00:55:35.585Z,57.90
2019-06-26T00:58:05.490Z,56.80
2019-06-26T01:00:39.682Z,57.00
2019-06-26T01:03:10.362Z,56.80
2019-06-26T01:05:40.503Z,56.70
2019-06-26T01:08:10.430Z,56.70
2019-06-26T01:10:39.422Z,56.60
2019-06-26T01:13:08.843Z,57.00
2019-06-26T01:15:38.522Z,56.90
2019-06-26T01:18:08.631Z,57.10
2019-06-26T01:20:38.052Z,57.00
2019-06-26T01:23:07.326Z,57.20
2019-06-26T01:25:38.015Z,57.70
2019-06-26T01:28:08.484Z,58.10
2019-06-26T01:30:40.104Z,57.90
2019-06-26T01:33:09.459Z,58.00
2019-06-26T01:35:38.495Z,58.90
2019-06-26T01:38:08.311Z,59.60
2019-06-26T01:40:39.537Z,60.00
2019-06-26T01:43:10.780Z,60.60
2019-06-26T01:45:41.897Z,60.30
2019-06-26T01:48:11.762Z,60.20
2019-06-26T01:50:48.001Z,59.50
2019-06-26T01:53:17.074Z,59.00
2019-06-26T01:55:48.393Z,59.40
2019-06-26T01:58:17.685Z,59.50
2019-06-26T02:00:51.822Z,58.80
2019-06-26T02:03:23.416Z,58.40
2019-06-26T02:06:02.733Z,57.70
2019-06-26T02:08:31.932Z,56.80
2019-06-26T02:11:03.681Z,57.30
2019-06-26T02:13:33.016Z,57.30
2019-06-26T02:16:02.827Z,57.70
2019-06-26T02:18:37.851Z,57.10
2019-06-26T02:21:07.433Z,56.30
2019-06-26T02:23:37.600Z,56.50
2019-06-26T02:26:07.508Z,55.90
2019-06-26T02:28:37.367Z,56.70
2019-06-26T02:31:07.787Z,57.30
2019-06-26T02:33:38.541Z,57.40
2019-06-26T02:36:11.268Z,58.00
2019-06-26T02:38:40.244Z,60.10
2019-06-26T02:41:09.624Z,61.80
2019-06-26T02:43:41.111Z,60.30
2019-06-26T02:46:10.285Z,59.30
2019-06-26T02:48:39.488Z,61.00
2019-06-26T02:51:08.802Z,61.50
2019-06-26T02:53:38.061Z,62.80
2019-06-26T02:56:07.032Z,60.90
2019-06-26T02:58:35.979Z,59.90
2019-06-26T03:01:06.336Z,59.20
2019-06-26T03:03:35.674Z,59.20
2019-06-26T03:06:08.423Z,59.20
2019-06-26T03:08:38.529Z,58.50
2019-06-26T03:11:09.098Z,56.70
2019-06-26T03:13:40.898Z,56.60
2019-06-26T03:16:11.354Z,56.50
2019-06-26T03:18:41.532Z,56.10
2019-06-26T03:21:12.347Z,56.50
2019-06-26T03:23:48.487Z,57.00
2019-06-26T03:26:17.390Z,56.20
2019-06-26T03:28:47.322Z,57.30
2019-06-26T03:31:20.471Z,57.30
2019-06-26T03:33:50.329Z,58.20
2019-06-26T03:36:20.461Z,58.40
2019-06-26T03:38:49.290Z,60.20
2019-06-26T03:41:18.541Z,60.40
2019-06-26T03:43:48.232Z,60.10
2019-06-26T03:46:18.622Z,60.90
2019-06-26T03:48:51.810Z,60.00
2019-06-26T03:51:22.115Z,62.80
2019-06-26T03:53:51.411Z,65.00
2019-06-26T03:56:23.182Z,64.60
2019-06-26T03:58:54.818Z,63.40
2019-06-26T04:01:25.290Z,63.80
2019-06-26T04:03:57.393Z,64.10
2019-06-26T04:06:26.203Z,63.10
2019-06-26T04:08:55.757Z,63.30
2019-06-26T04:11:32.836Z,62.10
2019-06-26T04:14:01.833Z,61.80
2019-06-26T04:16:31.400Z,61.20
2019-06-26T04:19:02.141Z,60.70
2019-06-26T04:21:31.331Z,59.90
2019-06-26T04:24:00.232Z,59.80
2019-06-26T04:26:31.247Z,59.40
2019-06-26T04:29:02.670Z,59.00
2019-06-26T04:31:33.112Z,58.70
2019-06-26T04:34:07.816Z,58.90
2019-06-26T04:36:37.370Z,59.30
2019-06-26T04:39:11.209Z,58.30
2019-06-26T04:41:40.702Z,58.20
2019-06-26T04:44:10.264Z,58.20
2019-06-26T04:46:42.327Z,58.10
2019-06-26T04:49:11.509Z,58.60
2019-06-26T04:51:45.285Z,58.10
2019-06-26T04:54:15.631Z,57.10
2019-06-26T04:56:44.877Z,56.80
2019-06-26T04:59:13.951Z,56.50
2019-06-26T05:01:46.477Z,55.90
2019-06-26T05:04:17.946Z,55.80
2019-06-26T05:06:48.455Z,55.70
2019-06-26T05:09:18.191Z,55.50
2019-06-26T05:11:52.638Z,55.60
2019-06-26T05:14:22.325Z,55.50
2019-06-26T05:16:51.257Z,55.50
2019-06-26T05:19:22.277Z,55.50
2019-06-26T05:21:52.491Z,55.20
2019-06-26T05:24:24.555Z,55.00
2019-06-26T05:26:55.428Z,55.00
2019-06-26T05:29:24.413Z,54.70
2019-06-26T05:31:55.057Z,54.40
2019-06-26T05:34:25.330Z,54.50
2019-06-26T05:36:55.985Z,54.30
2019-06-26T05:39:27.143Z,54.70
2019-06-26T05:41:56.715Z,54.10
2019-06-26T05:44:26.058Z,53.80
2019-06-26T05:46:58.175Z,54.20
2019-06-26T05:49:27.718Z,54.00
2019-06-26T05:52:02.002Z,53.90
2019-06-26T05:54:32.345Z,53.40
2019-06-26T05:57:02.551Z,53.80
2019-06-26T05:59:32.012Z,53.90
2019-06-26T06:02:01.360Z,54.00
2019-06-26T06:04:33.139Z,53.80
2019-06-26T06:07:04.135Z,54.00
2019-06-26T06:09:35.188Z,54.10
2019-06-26T06:12:04.563Z,54.30
2019-06-26T06:14:43.270Z,54.40
2019-06-26T06:17:12.499Z,54.00
2019-06-26T06:19:44.237Z,53.80
2019-06-26T06:22:14.348Z,53.30
2019-06-26T06:24:46.552Z,52.80
2019-06-26T06:27:16.413Z,52.40
2019-06-26T06:29:46.002Z,51.40
2019-06-26T06:32:15.717Z,51.10
2019-06-26T06:34:44.967Z,50.60
2019-06-26T06:37:15.601Z,50.40
2019-06-26T06:39:44.889Z,49.90
2019-06-26T06:42:14.078Z,49.90
2019-06-26T06:44:44.833Z,49.80
2019-06-26T06:47:17.077Z,49.70
2019-06-26T06:49:46.568Z,49.40
2019-06-26T06:52:16.882Z,48.50
2019-06-26T06:54:46.365Z,49.30
2019-06-26T06:57:15.425Z,49.30
2019-06-26T06:59:45.353Z,48.70
2019-06-26T07:02:15.562Z,49.00
2019-06-26T07:04:45.868Z,48.50
2019-06-26T07:07:19.065Z,48.40
2019-06-26T07:09:48.364Z,47.50
2019-06-26T07:12:20.789Z,47.50
2019-06-26T07:14:50.894Z,47.40
2019-06-26T07:17:21.933Z,47.50
2019-06-26T07:19:53.676Z,46.30
2019-06-26T07:22:26.545Z,45.80
2019-06-26T07:24:55.854Z,45.90
2019-06-26T07:27:27.596Z,45.40
2019-06-26T07:29:58.738Z,45.30
2019-06-26T07:32:31.679Z,45.00
2019-06-26T07:35:05.330Z,45.30
2019-06-26T07:37:35.870Z,45.10
2019-06-26T07:40:07.311Z,45.30
2019-06-26T07:42:38.156Z,45.40
2019-06-26T07:45:12.166Z,45.30
2019-06-26T07:47:44.054Z,45.50
2019-06-26T07:50:13.663Z,45.00
2019-06-26T07:52:43.360Z,43.70
2019-06-26T07:55:14.930Z,44.40
2019-06-26T07:57:44.365Z,44.80
2019-06-26T08:00:14.258Z,44.10
2019-06-26T08:02:45.388Z,44.10
2019-06-26T08:05:16.891Z,43.40
2019-06-26T08:07:50.926Z,43.70
2019-06-26T08:10:21.593Z,44.00
2019-06-26T08:12:55.083Z,44.30
2019-06-26T08:15:24.832Z,44.70
2019-06-26T08:18:00.391Z,44.60
2019-06-26T08:20:25.722Z,44.40
2019-06-26T08:22:54.922Z,44.30
2019-06-26T08:25:25.539Z,44.40
2019-06-26T08:27:54.946Z,44.00
2019-06-26T08:30:24.676Z,44.10
2019-06-26T08:32:55.591Z,43.60
2019-06-26T08:35:24.809Z,43.60
2019-06-26T08:38:08.995Z,43.60
2019-06-26T08:40:30.037Z,43.40
2019-06-26T08:43:00.237Z,43.70
2019-06-26T08:45:29.186Z,43.60
2019-06-26T08:47:58.114Z,44.10
2019-06-26T08:50:27.039Z,43.70
2019-06-26T08:52:55.919Z,43.80
2019-06-26T08:55:24.901Z,43.50
2019-06-26T08:57:53.888Z,43.10
2019-06-26T09:00:23.056Z,43.20
2019-06-26T09:02:51.938Z,43.00
2019-06-26T09:05:48.111Z,43.60
2019-06-26T09:08:10.140Z,43.60
2019-06-26T09:13:15.773Z,43.90
2019-06-26T09:15:49.618Z,43.70
2019-06-26T09:18:31.127Z,43.70
2019-06-26T09:20:48.762Z,43.80
2019-06-26T09:23:18.564Z,42.50
2019-06-26T09:25:51.740Z,42.50
2019-06-26T09:28:21.007Z,42.60
2019-06-26T09:30:51.019Z,42.30
2019-06-26T09:33:22.820Z,42.30
2019-06-26T09:35:55.967Z,42.30
2019-06-26T09:38:27.454Z,42.00
2019-06-26T09:40:57.958Z,42.00
2019-06-26T09:43:26.938Z,42.50
2019-06-26T09:45:56.640Z,42.30
2019-06-26T09:48:27.262Z,42.30
2019-06-26T09:50:58.276Z,42.70
2019-06-26T09:53:27.913Z,42.50
2019-06-26T09:55:57.515Z,42.60
2019-06-26T10:01:09.913Z,42.10
2019-06-26T10:03:39.035Z,41.90
2019-06-26T10:06:09.216Z,41.50
2019-06-26T10:08:38.255Z,41.10
2019-06-26T10:11:07.884Z,41.00
2019-06-26T10:13:37.445Z,41.10
2019-06-26T10:16:08.093Z,41.10
2019-06-26T10:18:37.058Z,40.90
2019-06-26T10:21:06.779Z,40.90
2019-06-26T10:23:37.482Z,40.70
2019-06-26T10:26:07.415Z,40.70
2019-06-26T10:28:37.174Z,40.20
2019-06-26T10:31:06.289Z,40.40
2019-06-26T10:33:39.093Z,40.80
2019-06-26T10:36:12.039Z,41.60
2019-06-26T10:38:41.440Z,41.20
2019-06-26T10:41:11.044Z,41.10
2019-06-26T10:43:42.052Z,41.60
2019-06-26T10:46:11.521Z,41.50
2019-06-26T10:48:40.516Z,41.60
2019-06-26T10:51:12.132Z,41.30
2019-06-26T10:53:43.428Z,41.00
2019-06-26T10:56:13.337Z,41.00
2019-06-26T10:58:46.713Z,41.50
2019-06-26T11:01:16.225Z,41.70
2019-06-26T11:03:47.002Z,41.70
2019-06-26T11:06:16.469Z,40.70
2019-06-26T11:08:47.513Z,41.40
2019-06-26T11:11:20.389Z,41.50
2019-06-26T11:13:49.332Z,42.20
2019-06-26T11:16:22.145Z,41.90
2019-06-26T11:18:51.340Z,41.10
2019-06-26T11:21:23.422Z,41.40
2019-06-26T11:24:02.713Z,41.40
2019-06-26T11:26:33.103Z,42.20
2019-06-26T11:29:06.948Z,41.90
2019-06-26T11:31:35.302Z,42.20
2019-06-26T11:34:05.157Z,41.70
2019-06-26T11:36:34.452Z,41.60
2019-06-26T11:39:05.854Z,41.70
2019-06-26T11:41:35.398Z,40.70
2019-06-26T11:44:07.077Z,40.90
2019-06-26T11:46:39.082Z,40.20
2019-06-26T11:49:09.963Z,41.20
2019-06-26T11:51:42.434Z,41.00
2019-06-26T11:54:11.578Z,41.30
2019-06-26T11:56:45.613Z,41.00
2019-06-26T11:59:17.998Z,41.10
2019-06-26T12:01:49.357Z,42.00
2019-06-26T12:04:20.290Z,42.20
2019-06-26T12:06:51.596Z,41.40
2019-06-26T12:09:21.424Z,40.60
2019-06-26T12:11:51.293Z,40.40
2019-06-26T12:14:21.736Z,40.30
2019-06-26T12:16:52.149Z,40.90
2019-06-26T12:19:24.057Z,41.10
2019-06-26T12:21:53.834Z,40.90
2019-06-26T12:24:26.690Z,40.60
2019-06-26T12:26:56.584Z,40.50
2019-06-26T12:29:25.582Z,40.10
2019-06-26T12:31:58.539Z,41.20
2019-06-26T12:34:27.581Z,40.50
2019-06-26T12:36:56.527Z,40.40
2019-06-26T12:39:25.480Z,39.90
2019-06-26T12:42:01.881Z,39.60
2019-06-26T12:44:36.389Z,39.00
2019-06-26T12:47:06.565Z,39.70
2019-06-26T12:49:36.771Z,40.00
2019-06-26T12:52:06.094Z,39.70
2019-06-26T12:54:35.005Z,39.80
2019-06-26T12:57:05.223Z,39.50
2019-06-26T12:59:36.021Z,40.20
2019-06-26T13:02:09.401Z,40.20
2019-06-26T13:04:38.891Z,40.10
2019-06-26T13:07:09.260Z,39.70
2019-06-26T13:09:40.318Z,40.30
2019-06-26T13:12:12.717Z,40.20
2019-06-26T13:14:52.363Z,40.00
2019-06-26T13:17:23.950Z,39.30
2019-06-26T13:19:54.893Z,39.60
2019-06-26T13:22:29.204Z,39.90
2019-06-26T13:25:00.385Z,39.10
2019-06-26T13:27:44.208Z,37.60
2019-06-26T13:30:15.367Z,37.20
2019-06-26T13:32:49.796Z,37.10
2019-06-26T13:35:24.239Z,35.90
2019-06-26T13:37:56.156Z,36.80
2019-06-26T13:40:27.536Z,37.50
2019-06-26T13:42:56.219Z,38.30
2019-06-26T13:45:26.264Z,38.90
2019-06-26T13:47:55.502Z,38.70
2019-06-26T13:50:25.622Z,37.90
2019-06-26T13:52:57.258Z,36.90
2019-06-26T13:55:27.914Z,37.60
2019-06-26T13:58:00.287Z,38.30
2019-06-26T14:00:32.654Z,38.40
2019-06-26T14:03:03.462Z,37.80
2019-06-26T14:05:45.601Z,38.20
2019-06-26T14:08:14.492Z,38.00
2019-06-26T14:10:44.637Z,37.80
2019-06-26T14:13:14.855Z,37.70
2019-06-26T14:15:44.742Z,38.10
2019-06-26T14:18:13.744Z,37.70
2019-06-26T14:20:44.001Z,36.80
2019-06-26T14:23:16.586Z,37.30
2019-06-26T14:25:46.780Z,37.50
2019-06-26T14:28:19.575Z,37.70
2019-06-26T14:30:48.564Z,37.50
2019-06-26T14:33:20.818Z,38.00
2019-06-26T14:35:51.225Z,37.30
2019-06-26T14:38:22.838Z,37.30
2019-06-26T14:40:52.450Z,37.50
2019-06-26T14:43:23.266Z,37.70
2019-06-26T14:45:54.168Z,37.20
2019-06-26T14:48:29.692Z,37.00
2019-06-26T14:51:00.144Z,36.90
2019-06-26T14:53:29.340Z,36.60
2019-06-26T14:55:59.819Z,36.70
2019-06-26T14:58:29.772Z,36.60
2019-06-26T15:01:20.093Z,36.60
2019-06-26T15:03:49.526Z,36.70
2019-06-26T15:06:18.478Z,36.40
2019-06-26T15:08:52.165Z,36.00
2019-06-26T15:11:22.970Z,34.60
2019-06-26T15:13:52.609Z,34.50
2019-06-26T15:16:30.354Z,34.20
2019-06-26T15:19:02.461Z,34.50
2019-06-26T15:21:32.785Z,34.50
2019-06-26T15:24:03.874Z,35.00
2019-06-26T15:26:36.398Z,35.00
2019-06-26T15:29:08.147Z,35.00
2019-06-26T15:31:38.699Z,34.40
2019-06-26T15:34:11.710Z,33.80
2019-06-26T15:36:42.359Z,33.20
2019-06-26T15:39:16.508Z,33.40
2019-06-26T15:41:46.169Z,33.60
2019-06-26T15:44:17.131Z,34.00
2019-06-26T15:46:51.042Z,33.90
2019-06-26T15:49:22.765Z,34.30
2019-06-26T15:51:52.639Z,34.30
2019-06-26T15:54:31.753Z,34.00
2019-06-26T15:57:20.444Z,34.30
2019-06-26T15:59:52.347Z,34.70
2019-06-26T16:02:22.862Z,35.00
2019-06-26T16:04:57.405Z,35.10
2019-06-26T16:07:27.612Z,35.40
2019-06-26T16:09:59.540Z,35.60
2019-06-26T16:12:32.295Z,35.90
2019-06-26T16:15:05.272Z,36.30
2019-06-26T16:17:47.941Z,36.40
2019-06-26T16:20:19.848Z,36.50
2019-06-26T16:22:54.879Z,37.00
2019-06-26T16:25:25.910Z,37.20
2019-06-26T16:28:05.784Z,37.10
2019-06-26T16:30:33.776Z,37.50
2019-06-26T16:33:02.828Z,37.80
2019-06-26T16:35:33.943Z,38.10
2019-06-26T16:38:03.526Z,38.40
2019-06-26T16:40:33.876Z,38.40
2019-06-26T16:43:12.172Z,38.50
2019-06-26T16:45:41.907Z,38.50
2019-06-26T16:48:14.203Z,38.50
2019-06-26T16:50:44.235Z,38.80
2019-06-26T16:53:13.397Z,38.40
2019-06-26T16:55:47.072Z,38.10
2019-06-26T16:58:16.419Z,38.00
2019-06-26T17:00:48.755Z,38.00
2019-06-26T17:03:18.621Z,37.90
2019-06-26T17:05:49.599Z,38.00
2019-06-26T17:08:18.552Z,38.20
2019-06-26T17:10:50.110Z,38.30
2019-06-26T17:13:20.412Z,38.10
2019-06-26T17:15:50.046Z,38.30
2019-06-26T17:18:20.038Z,38.40
2019-06-26T17:20:48.944Z,38.40
2019-06-26T17:23:18.277Z,38.50
2019-06-26T17:25:47.244Z,38.70
2019-06-26T17:28:16.416Z,38.70
2019-06-26T17:30:48.326Z,38.80
2019-06-26T17:33:17.240Z,38.50
2019-06-26T17:35:46.144Z,38.20
2019-06-26T17:38:17.137Z,38.20
2019-06-26T17:40:49.454Z,38.00
2019-06-26T17:43:23.207Z,38.10
2019-06-26T17:45:54.432Z,38.00
2019-06-26T17:48:25.589Z,38.20
2019-06-26T17:50:55.642Z,38.30
2019-06-26T17:53:39.068Z,37.80
2019-06-26T17:56:21.361Z,37.80
2019-06-26T17:58:54.380Z,38.10
2019-06-26T18:01:23.382Z,38.40
2019-06-26T18:03:53.574Z,38.40
2019-06-26T18:06:35.118Z,38.40
2019-06-26T18:09:12.187Z,38.50
2019-06-26T18:11:42.704Z,38.70
2019-06-26T18:14:11.593Z,38.80
2019-06-26T18:16:48.096Z,39.00
2019-06-26T18:19:22.132Z,38.70
2019-06-26T18:21:52.483Z,39.30
2019-06-26T18:24:21.784Z,39.00
2019-06-26T18:26:54.648Z,38.60
2019-06-26T18:29:24.089Z,38.90
2019-06-26T18:31:54.430Z,38.90
2019-06-26T18:34:29.100Z,39.10
2019-06-26T18:36:59.810Z,39.80
2019-06-26T18:39:35.060Z,40.40
2019-06-26T18:42:06.533Z,40.80
2019-06-26T18:44:39.637Z,41.00
2019-06-26T18:47:22.966Z,41.00
2019-06-26T18:49:55.211Z,41.00
2019-06-26T18:52:31.434Z,41.20
2019-06-26T18:55:00.909Z,41.40
2019-06-26T18:57:33.373Z,41.60
2019-06-26T19:00:07.791Z,41.70
2019-06-26T19:02:37.726Z,41.60
2019-06-26T19:05:12.243Z,41.80
2019-06-26T19:07:41.145Z,41.90
2019-06-26T19:10:10.760Z,42.00
2019-06-26T19:12:46.558Z,42.30
2019-06-26T19:15:18.610Z,42.60
2019-06-26T19:17:50.605Z,42.80
2019-06-26T19:20:21.369Z,43.20
2019-06-26T19:22:49.860Z,43.70
2019-06-26T19:25:19.955Z,44.00
2019-06-26T19:27:48.998Z,44.40
2019-06-26T19:30:20.651Z,44.40
2019-06-26T19:32:49.621Z,44.60
2019-06-26T19:35:20.277Z,44.80
2019-06-26T19:37:53.549Z,45.20
2019-06-26T19:40:24.493Z,45.10
2019-06-26T19:42:53.347Z,45.50
2019-06-26T19:45:29.377Z,45.90
2019-06-26T19:48:00.798Z,46.10
2019-06-26T19:50:29.767Z,46.30
2019-06-26T19:52:59.864Z,46.20
2019-06-26T19:55:29.513Z,46.10
2019-06-26T19:57:59.483Z,46.70
2019-06-26T20:00:29.227Z,46.40
2019-06-26T20:03:03.233Z,46.40
2019-06-26T20:05:37.297Z,46.40
2019-06-26T20:08:07.316Z,46.30
2019-06-26T20:10:43.927Z,46.40
2019-06-26T20:13:12.889Z,46.40
2019-06-26T20:15:42.754Z,46.50
2019-06-26T20:18:12.529Z,46.70
2019-06-26T20:20:42.670Z,47.00
2019-06-26T20:23:12.099Z,47.40
2019-06-26T20:25:42.511Z,47.50
2019-06-26T20:28:12.726Z,46.90
2019-06-26T20:30:45.106Z,46.80
2019-06-26T20:33:18.075Z,46.90
2019-06-26T20:35:49.036Z,47.20
2019-06-26T20:38:23.417Z,46.80
2019-06-26T20:40:56.442Z,46.90
2019-06-26T20:43:26.662Z,47.00
2019-06-26T20:45:56.847Z,47.10
2019-06-26T20:48:27.810Z,47.20
2019-06-26T20:50:59.262Z,47.20
2019-06-26T20:53:29.580Z,47.00
2019-06-26T20:56:00.578Z,47.10
2019-06-26T20:58:33.748Z,47.30
2019-06-26T21:01:04.228Z,47.40
2019-06-26T21:03:36.096Z,47.30
2019-06-26T21:06:06.164Z,47.20
2019-06-26T21:08:38.897Z,47.40
2019-06-26T21:11:11.142Z,47.60
2019-06-26T21:13:50.397Z,47.60
2019-06-26T21:16:21.242Z,47.60
2019-06-26T21:18:54.504Z,47.60
2019-06-26T21:21:25.245Z,47.80
2019-06-26T21:23:54.186Z,47.90
2019-06-26T21:26:27.103Z,47.90
2019-06-26T21:29:00.852Z,48.10
2019-06-26T21:31:31.330Z,48.20
2019-06-26T21:34:02.761Z,48.30
2019-06-26T21:36:37.420Z,48.60
2019-06-26T21:39:09.979Z,48.70
2019-06-26T21:41:42.738Z,48.80
2019-06-26T21:44:15.443Z,48.80
2019-06-26T21:46:48.414Z,48.90
2019-06-26T21:49:20.247Z,48.80
2019-06-26T21:51:55.385Z,49.00
2019-06-26T21:54:24.296Z,49.20
2019-06-26T21:56:56.577Z,49.10
2019-06-26T21:59:26.525Z,49.30
2019-06-26T22:01:59.364Z,49.30
2019-06-26T22:04:29.862Z,48.90
2019-06-26T22:07:00.464Z,48.40
2019-06-26T22:09:30.109Z,48.50
2019-06-26T22:12:00.881Z,48.40
2019-06-26T22:14:29.965Z,48.50
2019-06-26T22:16:59.258Z,48.20
2019-06-26T22:19:29.436Z,48.20
2019-06-26T22:21:58.286Z,48.10
2019-06-26T22:24:27.321Z,48.30
2019-06-26T22:26:58.807Z,48.20
2019-06-26T22:29:30.178Z,48.60
2019-06-26T22:31:59.109Z,48.50
2019-06-26T22:38:33.696Z,48.70
2019-06-26T22:41:02.670Z,49.00
2019-06-26T22:43:34.221Z,49.00
2019-06-26T22:46:04.463Z,49.30
2019-06-26T22:48:34.253Z,49.50
2019-06-26T22:51:05.293Z,49.90
2019-06-26T22:53:38.868Z,50.00
2019-06-26T22:56:11.899Z,49.90
2019-06-26T22:58:43.896Z,50.10
2019-06-26T23:01:17.214Z,49.80
2019-06-26T23:03:46.303Z,49.80
2019-06-26T23:06:16.363Z,49.80
2019-06-26T23:08:48.387Z,50.30
2019-06-26T23:11:17.318Z,50.80
2019-06-26T23:13:46.347Z,51.20
2019-06-26T23:16:15.675Z,51.20
2019-06-26T23:18:46.161Z,51.80
2019-06-26T23:21:16.283Z,51.90
2019-06-26T23:23:45.151Z,52.00
2019-06-26T23:26:24.149Z,52.40
2019-06-26T23:28:48.745Z,52.80
2019-06-26T23:31:17.655Z,53.20
2019-06-26T23:33:54.161Z,53.40
2019-06-26T23:36:26.075Z,54.50
2019-06-26T23:38:54.945Z,55.10
2019-06-26T23:41:25.611Z,55.60
2019-06-26T23:43:55.359Z,56.00
2019-06-26T23:46:25.766Z,56.50
2019-06-26T23:48:57.036Z,57.00
2019-06-26T23:51:26.524Z,57.50
2019-06-26T23:53:56.285Z,58.10
2019-06-26T23:56:39.834Z,58.50
2019-06-26T23:59:02.215Z,58.20
